createdAt,value
2023-04-02T00:01:02.672Z,49020.31
2023-04-02T00:03:44.559Z,49024.22
2023-04-02T00:06:44.903Z,49024.22
2023-04-02T00:09:14.681Z,49016.38
2023-04-02T00:11:44.609Z,49014.41
2023-04-02T00:14:24.670Z,48996.78
2023-04-02T00:16:52.768Z,48988.94
2023-04-02T00:19:58.365Z,49012.47
2023-04-02T00:22:31.617Z,49006.59
2023-04-02T00:25:01.992Z,49022.25
2023-04-02T00:27:31.016Z,49008.53
2023-04-02T00:29:59.186Z,49008.53
2023-04-02T00:32:30.356Z,49020.31
2023-04-02T00:34:58.434Z,49020.31
2023-04-02T00:37:28.388Z,48996.78
2023-04-02T00:40:07.161Z,49002.66
2023-04-02T00:42:35.498Z,49008.53
2023-04-02T00:45:02.937Z,49004.63
2023-04-02T00:47:37.078Z,48992.88
2023-04-02T00:50:21.818Z,49016.38
2023-04-02T00:52:52.457Z,49010.50
2023-04-02T00:55:34.774Z,48996.78
2023-04-02T00:58:02.019Z,48996.78
2023-04-02T01:00:30.241Z,48988.94
2023-04-02T01:03:18.936Z,49006.59
2023-04-02T01:05:50.249Z,48988.94
2023-04-02T01:08:37.821Z,49004.63
2023-04-02T01:11:31.990Z,48996.78
2023-04-02T01:14:07.274Z,48985.03
2023-04-02T01:16:46.743Z,49004.63
2023-04-02T01:19:32.168Z,48992.88
2023-04-02T01:22:05.607Z,48996.78
2023-04-02T01:24:34.699Z,48992.88
2023-04-02T01:27:19.389Z,48996.78
2023-04-02T01:29:57.966Z,48994.84
2023-04-02T01:32:27.638Z,49008.53
2023-04-02T01:34:56.197Z,49004.63
2023-04-02T01:37:27.971Z,48994.84
2023-04-02T01:40:17.894Z,49004.63
2023-04-02T01:43:02.005Z,48987.00
2023-04-02T01:45:29.929Z,48992.88
2023-04-02T01:47:56.741Z,49010.50
2023-04-02T01:50:37.033Z,48987.00
2023-04-02T01:53:07.219Z,49012.47
2023-04-02T01:55:39.263Z,49000.72
2023-04-02T01:58:06.166Z,49004.63
2023-04-02T02:00:36.526Z,48987.00
2023-04-02T02:03:05.098Z,49004.63
2023-04-02T02:05:32.676Z,48994.84
2023-04-02T02:08:01.280Z,48983.06
2023-04-02T02:10:39.510Z,49000.72
2023-04-02T02:13:06.699Z,48988.94
2023-04-02T02:15:34.573Z,48988.94
2023-04-02T02:18:05.378Z,48977.19
2023-04-02T02:20:33.955Z,48977.19
2023-04-02T02:23:01.345Z,48988.94
2023-04-02T02:25:32.291Z,48977.19
2023-04-02T02:28:23.721Z,48988.94
2023-04-02T02:31:03.980Z,48985.03
2023-04-02T02:33:57.722Z,48996.78
2023-04-02T02:36:50.752Z,48992.88
2023-04-02T02:39:37.398Z,48992.88
2023-04-02T02:42:42.839Z,48979.16
2023-04-02T02:45:25.032Z,48985.03
2023-04-02T02:47:53.726Z,48975.25
2023-04-02T02:50:24.278Z,48988.94
2023-04-02T02:52:54.568Z,48987.00
2023-04-02T02:55:27.558Z,48981.13
2023-04-02T02:57:59.028Z,48992.88
2023-04-02T03:00:26.278Z,48996.78
2023-04-02T03:02:57.019Z,48981.13
2023-04-02T03:05:27.782Z,48981.13
2023-04-02T03:07:57.185Z,48985.03
2023-04-02T03:10:43.380Z,48981.13
2023-04-02T03:13:23.300Z,48977.19
2023-04-02T03:16:28.592Z,48969.38
2023-04-02T03:19:13.411Z,48965.44
2023-04-02T03:21:51.000Z,48961.53
2023-04-02T03:24:25.944Z,48941.94
2023-04-02T03:27:12.842Z,48938.03
2023-04-02T03:29:49.929Z,48943.91
2023-04-02T03:32:22.685Z,48926.25
2023-04-02T03:34:57.831Z,48932.13
2023-04-02T03:37:32.000Z,48926.25
2023-04-02T03:40:34.019Z,48926.25
2023-04-02T03:43:12.238Z,48930.19
2023-04-02T03:45:46.262Z,48930.19
2023-04-02T03:48:25.807Z,48928.22
2023-04-02T03:51:00.188Z,48939.97
2023-04-02T03:53:29.918Z,48938.03
2023-04-02T03:55:57.212Z,48949.78
2023-04-02T03:58:30.793Z,48934.09
2023-04-02T04:01:04.699Z,48934.09
2023-04-02T04:03:42.397Z,48930.19
2023-04-02T04:06:20.285Z,48928.22
2023-04-02T04:08:54.705Z,48914.50
2023-04-02T04:11:30.429Z,48916.47
2023-04-02T04:14:17.302Z,48912.56
2023-04-02T04:17:14.209Z,48910.59
2023-04-02T04:19:48.418Z,48914.50
2023-04-02T04:22:30.712Z,48912.56
2023-04-02T04:24:59.036Z,48906.69
2023-04-02T04:27:44.850Z,48910.59
2023-04-02T04:30:24.383Z,48906.69
2023-04-02T04:32:58.862Z,48910.59
2023-04-02T04:35:31.257Z,48922.34
2023-04-02T04:38:12.076Z,48912.56
2023-04-02T04:40:50.323Z,48910.59
2023-04-02T04:43:22.994Z,48906.69
2023-04-02T04:46:00.329Z,48906.69
2023-04-02T04:48:36.000Z,48906.69
2023-04-02T04:51:09.213Z,48910.59
2023-04-02T04:53:45.850Z,48912.56
2023-04-02T04:56:19.274Z,48898.84
2023-04-02T04:58:49.682Z,48896.88
2023-04-02T05:01:25.778Z,48898.84
2023-04-02T05:04:11.367Z,48894.91
2023-04-02T05:06:43.221Z,48894.91
2023-04-02T05:09:22.719Z,48898.84
2023-04-02T05:12:21.694Z,48885.13
2023-04-02T05:14:57.145Z,48887.09
2023-04-02T05:17:33.411Z,48887.09
2023-04-02T05:20:26.279Z,48883.16
2023-04-02T05:23:17.528Z,48875.34
2023-04-02T05:25:58.580Z,48869.44
2023-04-02T05:28:47.164Z,48871.41
2023-04-02T05:31:22.353Z,48869.44
2023-04-02T05:33:49.391Z,48871.41
2023-04-02T05:36:22.515Z,48863.56
2023-04-02T05:38:51.247Z,48867.50
2023-04-02T05:41:39.327Z,48861.63
2023-04-02T05:44:40.292Z,48851.81
2023-04-02T05:47:18.962Z,48851.81
2023-04-02T05:49:51.884Z,48855.75
2023-04-02T05:52:30.883Z,48847.91
2023-04-02T05:55:17.192Z,48847.91
2023-04-02T05:57:59.082Z,48847.91
2023-04-02T06:00:39.277Z,48845.94
2023-04-02T06:03:16.054Z,48844.00
2023-04-02T06:05:46.087Z,48840.06
2023-04-02T06:08:21.135Z,48840.06
2023-04-02T06:10:58.741Z,48838.09
2023-04-02T06:13:25.319Z,48840.06
2023-04-02T06:15:51.981Z,48844.00
2023-04-02T06:18:30.352Z,48838.09
2023-04-02T06:20:57.225Z,48840.06
2023-04-02T06:23:39.915Z,48840.06
2023-04-02T06:26:09.911Z,48836.16
2023-04-02T06:28:46.124Z,48836.16
2023-04-02T06:31:27.950Z,48836.16
2023-04-02T06:33:56.304Z,48838.09
2023-04-02T06:36:26.897Z,48828.31
2023-04-02T06:38:58.969Z,48838.09
2023-04-02T06:41:25.590Z,48836.16
2023-04-02T06:44:04.914Z,48840.06
2023-04-02T06:46:36.448Z,48836.16
2023-04-02T06:49:17.073Z,48832.22
2023-04-02T06:51:45.954Z,48834.19
2023-04-02T06:54:16.081Z,48832.22
2023-04-02T06:56:46.173Z,48834.19
2023-04-02T06:59:13.454Z,48836.16
2023-04-02T07:01:57.611Z,48832.22
2023-04-02T07:04:24.941Z,48834.19
2023-04-02T07:06:51.374Z,48832.22
2023-04-02T07:09:17.759Z,48834.19
2023-04-02T07:11:44.230Z,48836.16
2023-04-02T07:14:15.536Z,48836.16
2023-04-02T07:16:43.224Z,48832.22
2023-04-02T07:19:21.744Z,48828.31
2023-04-02T07:21:48.264Z,48836.16
2023-04-02T07:24:14.834Z,48832.22
2023-04-02T07:26:41.840Z,48836.16
2023-04-02T07:29:13.353Z,48830.28
2023-04-02T07:31:41.221Z,48832.22
2023-04-02T07:34:08.070Z,48836.16
2023-04-02T07:36:34.710Z,48836.16
2023-04-02T07:39:02.069Z,48832.22
2023-04-02T07:41:28.492Z,48836.16
2023-04-02T07:43:54.972Z,48836.16
2023-04-02T07:46:21.782Z,48836.16
2023-04-02T07:48:48.342Z,48830.28
2023-04-02T07:51:26.086Z,48832.22
2023-04-02T07:53:56.030Z,48832.22
2023-04-02T07:56:25.053Z,48830.28
2023-04-02T07:58:51.839Z,48834.19
2023-04-02T08:01:26.410Z,48832.22
2023-04-02T08:03:54.966Z,48840.06
2023-04-02T08:06:22.510Z,48832.22
2023-04-02T08:08:49.313Z,48832.22
2023-04-02T08:11:16.751Z,48836.16
2023-04-02T08:13:43.367Z,48832.22
2023-04-02T08:16:10.613Z,48828.31
2023-04-02T08:18:37.146Z,48830.28
2023-04-02T08:21:07.930Z,48836.16
2023-04-02T08:23:35.786Z,48828.31
2023-04-02T08:26:02.418Z,48828.31
2023-04-02T08:28:29.015Z,48832.22
2023-04-02T08:30:55.594Z,48830.28
2023-04-02T08:33:22.350Z,48834.19
2023-04-02T08:35:49.643Z,48836.16
2023-04-02T08:38:22.149Z,48836.16
2023-04-02T08:40:54.332Z,48832.22
2023-04-02T08:43:41.843Z,48836.16
2023-04-02T08:46:27.010Z,48830.28
2023-04-02T08:48:58.858Z,48836.16
2023-04-02T08:51:35.306Z,48834.19
2023-04-02T08:54:22.952Z,48838.09
2023-04-02T08:56:55.446Z,48832.22
2023-04-02T08:59:36.271Z,48834.19
2023-04-02T09:02:21.669Z,48832.22
2023-04-02T09:04:48.589Z,48832.22
2023-04-02T09:07:16.939Z,48832.22
2023-04-02T09:09:46.407Z,48832.22
2023-04-02T09:12:28.077Z,48836.16
2023-04-02T09:15:13.260Z,48836.16
2023-04-02T09:17:53.223Z,48832.22
2023-04-02T09:20:26.108Z,48834.19
2023-04-02T09:22:54.195Z,48828.31
2023-04-02T09:25:27.144Z,48828.31
2023-04-02T09:27:56.851Z,48832.22
2023-04-02T09:30:32.373Z,48828.31
2023-04-02T09:33:07.412Z,48832.22
2023-04-02T09:35:36.823Z,48832.22
2023-04-02T09:38:24.618Z,48832.22
2023-04-02T09:40:51.089Z,48828.31
2023-04-02T09:43:19.274Z,48832.22
2023-04-02T09:45:56.528Z,48830.28
2023-04-02T09:48:25.012Z,48832.22
2023-04-02T09:51:21.400Z,48830.28
2023-04-02T09:54:04.652Z,48834.19
2023-04-02T09:56:33.232Z,48828.31
2023-04-02T09:59:04.955Z,48826.34
2023-04-02T10:01:37.319Z,48832.22
2023-04-02T10:04:06.989Z,48830.28
2023-04-02T10:06:35.121Z,48836.16
2023-04-02T10:09:21.591Z,48836.16
2023-04-02T10:11:50.342Z,48832.22
2023-04-02T10:14:28.242Z,48836.16
2023-04-02T10:17:14.622Z,48834.19
2023-04-02T10:19:47.563Z,48830.28
2023-04-02T10:22:19.572Z,48832.22
2023-04-02T10:24:46.141Z,48836.16
2023-04-02T10:27:25.676Z,48836.16
2023-04-02T10:30:19.388Z,48832.22
2023-04-02T10:33:08.617Z,48832.22
2023-04-02T10:35:50.352Z,48836.16
2023-04-02T10:38:39.915Z,48832.22
2023-04-02T10:41:33.639Z,48828.31
2023-04-02T10:44:12.604Z,48832.22
2023-04-02T10:47:04.498Z,48832.22
2023-04-02T10:50:25.535Z,48832.22
2023-04-02T10:53:10.298Z,48840.06
2023-04-02T10:55:43.124Z,48834.19
2023-04-02T10:58:24.502Z,48836.16
2023-04-02T11:00:59.802Z,48836.16
2023-04-02T11:03:42.388Z,48834.19
2023-04-02T11:06:22.884Z,48832.22
2023-04-02T11:08:53.820Z,48830.28
2023-04-02T11:11:26.329Z,48832.22
2023-04-02T11:14:00.460Z,48836.16
2023-04-02T11:16:27.643Z,48838.09
2023-04-02T11:19:14.375Z,48836.16
2023-04-02T11:22:02.100Z,48836.16
2023-04-02T11:24:33.912Z,48832.22
2023-04-02T11:27:08.241Z,48834.19
2023-04-02T11:29:39.433Z,48847.91
2023-04-02T11:32:25.358Z,48851.81
2023-04-02T11:35:05.839Z,48844.00
2023-04-02T11:37:45.214Z,48851.81
2023-04-02T11:40:12.279Z,48855.75
2023-04-02T11:42:41.205Z,48892.97
2023-04-02T11:45:29.050Z,48945.84
2023-04-02T11:48:01.742Z,48957.59
2023-04-02T11:50:42.910Z,48969.38
2023-04-02T11:53:12.278Z,48918.44
2023-04-02T11:55:40.896Z,48898.84
2023-04-02T11:58:30.312Z,48894.91
2023-04-02T12:01:20.185Z,48945.84
2023-04-02T12:04:14.487Z,48973.28
2023-04-02T12:06:47.057Z,48938.03
2023-04-02T12:09:57.969Z,48981.13
2023-04-02T12:12:24.353Z,48961.53
2023-04-02T12:14:56.331Z,48941.94
2023-04-02T12:17:33.830Z,48932.13
2023-04-02T12:20:20.286Z,48912.56
2023-04-02T12:22:50.744Z,48938.03
2023-04-02T12:25:20.517Z,48985.03
2023-04-02T12:27:47.005Z,49020.31
2023-04-02T12:30:24.676Z,48961.53
2023-04-02T12:32:51.162Z,49020.31
2023-04-02T12:35:27.250Z,48981.13
2023-04-02T12:37:54.041Z,48973.28
2023-04-02T12:40:20.997Z,48973.28
2023-04-02T12:42:47.459Z,48965.44
2023-04-02T12:45:26.096Z,48981.13
2023-04-02T12:47:53.771Z,48973.28
2023-04-02T12:50:22.617Z,48996.78
2023-04-02T12:52:51.365Z,48988.94
2023-04-02T12:55:27.295Z,48973.28
2023-04-02T12:57:58.617Z,48981.13
2023-04-02T13:00:25.266Z,48988.94
2023-04-02T13:03:05.635Z,49016.38
2023-04-02T13:05:35.301Z,49006.59
2023-04-02T13:08:02.748Z,49016.38
2023-04-02T13:10:29.292Z,49010.50
2023-04-02T13:12:58.507Z,49035.97
2023-04-02T13:15:37.057Z,49006.59
2023-04-02T13:18:12.505Z,49035.97
2023-04-02T13:20:43.585Z,49004.63
2023-04-02T13:23:29.017Z,49041.84
2023-04-02T13:26:00.040Z,49032.06
2023-04-02T13:28:27.227Z,48992.88
2023-04-02T13:30:53.719Z,49024.22
2023-04-02T13:33:20.537Z,48988.94
2023-04-02T13:35:47.256Z,48981.13
2023-04-02T13:38:13.994Z,49014.41
2023-04-02T13:40:40.453Z,49000.72
2023-04-02T13:43:08.271Z,48987.00
2023-04-02T13:45:37.524Z,49004.63
2023-04-02T13:48:05.223Z,49018.34
2023-04-02T13:50:34.392Z,48996.78
2023-04-02T13:53:10.180Z,49004.63
2023-04-02T13:55:40.809Z,49020.31
2023-04-02T13:58:07.424Z,49028.13
2023-04-02T14:00:37.797Z,49018.34
2023-04-02T14:03:11.058Z,49010.50
2023-04-02T14:05:59.453Z,49012.47
2023-04-02T14:08:44.574Z,49020.31
2023-04-02T14:11:30.020Z,49053.59
2023-04-02T14:14:16.906Z,49022.25
2023-04-02T14:17:05.928Z,49030.09
2023-04-02T14:19:51.217Z,49016.38
2023-04-02T14:22:17.881Z,49008.53
2023-04-02T14:25:03.017Z,49004.63
2023-04-02T14:27:53.171Z,49004.63
2023-04-02T14:30:57.020Z,49020.31
2023-04-02T14:33:44.023Z,49008.53
2023-04-02T14:36:15.619Z,48996.78
2023-04-02T14:39:04.211Z,48996.78
2023-04-02T14:41:44.639Z,49032.06
2023-04-02T14:44:12.305Z,49063.41
2023-04-02T14:46:39.687Z,49079.06
2023-04-02T14:49:12.331Z,49020.31
2023-04-02T14:51:43.849Z,49079.06
2023-04-02T14:54:24.406Z,49098.66
2023-04-02T14:56:57.559Z,49090.81
2023-04-02T15:00:02.688Z,49063.41
2023-04-02T15:02:38.125Z,49067.31
2023-04-02T15:05:31.199Z,49051.66
2023-04-02T15:08:12.652Z,49043.81
2023-04-02T15:11:01.930Z,49032.06
2023-04-02T15:14:06.067Z,49051.66
2023-04-02T15:16:33.313Z,49053.59
2023-04-02T15:19:01.258Z,49020.31
2023-04-02T15:21:57.196Z,49028.13
2023-04-02T15:25:16.817Z,49032.06
2023-04-02T15:28:02.423Z,48985.03
2023-04-02T15:30:35.502Z,48957.59
2023-04-02T15:33:30.225Z,48961.53
2023-04-02T15:36:13.182Z,48938.03
2023-04-02T15:38:45.923Z,48910.59
2023-04-02T15:41:23.787Z,48896.88
2023-04-02T15:44:04.865Z,48844.00
2023-04-02T15:46:44.517Z,48879.25
2023-04-02T15:49:20.226Z,48847.91
2023-04-02T15:52:08.113Z,48855.75
2023-04-02T15:55:03.902Z,48840.06
2023-04-02T15:57:51.531Z,48840.06
2023-04-02T16:00:24.223Z,48855.75
2023-04-02T16:03:17.349Z,48812.63
2023-04-02T16:06:00.473Z,48806.75
2023-04-02T16:08:33.194Z,48832.22
2023-04-02T16:10:59.705Z,48802.84
2023-04-02T16:13:33.619Z,48804.81
2023-04-02T16:16:06.327Z,48789.13
2023-04-02T16:19:00.972Z,48775.41
2023-04-02T16:21:40.464Z,48804.81
2023-04-02T16:24:12.563Z,48798.94
2023-04-02T16:26:45.771Z,48781.31
2023-04-02T16:29:54.892Z,48796.97
2023-04-02T16:32:59.680Z,48808.72
2023-04-02T16:35:45.030Z,48765.63
2023-04-02T16:38:14.657Z,48795.00
2023-04-02T16:41:07.533Z,48753.88
2023-04-02T16:43:50.674Z,48785.22
2023-04-02T16:46:40.550Z,48761.72
2023-04-02T16:49:13.452Z,48765.63
2023-04-02T16:52:01.276Z,48769.53
2023-04-02T16:54:43.288Z,48753.88
2023-04-02T16:57:24.985Z,48777.38
2023-04-02T17:00:11.038Z,48769.53
2023-04-02T17:02:47.764Z,48765.63
2023-04-02T17:05:26.341Z,48740.16
2023-04-02T17:08:09.503Z,48765.63
2023-04-02T17:10:47.686Z,48769.53
2023-04-02T17:13:44.245Z,48785.22
2023-04-02T17:16:20.169Z,48753.88
2023-04-02T17:18:55.014Z,48761.72
2023-04-02T17:21:26.343Z,48746.03
2023-04-02T17:24:03.144Z,48777.38
2023-04-02T17:26:34.778Z,48761.72
2023-04-02T17:29:08.315Z,48761.72
2023-04-02T17:31:35.875Z,48742.13
2023-04-02T17:34:15.249Z,48757.78
2023-04-02T17:36:46.574Z,48757.78
2023-04-02T17:39:35.758Z,48769.53
2023-04-02T17:42:24.602Z,48734.28
2023-04-02T17:45:08.971Z,48726.44
2023-04-02T17:47:47.672Z,48746.03
2023-04-02T17:50:44.053Z,48753.88
2023-04-02T17:53:29.936Z,48722.53
2023-04-02T17:56:18.316Z,48761.72
2023-04-02T17:59:07.375Z,48757.78
2023-04-02T18:01:49.990Z,48746.03
2023-04-02T18:04:41.722Z,48765.63
2023-04-02T18:07:46.046Z,48742.13
2023-04-02T18:10:24.070Z,48771.50
2023-04-02T18:13:01.633Z,48761.72
2023-04-02T18:15:37.653Z,48773.47
2023-04-02T18:18:04.069Z,48753.88
2023-04-02T18:20:44.752Z,48746.03
2023-04-02T18:23:24.976Z,48738.19
2023-04-02T18:25:58.248Z,48773.47
2023-04-02T18:29:03.750Z,48773.47
2023-04-02T18:31:42.034Z,48765.63
2023-04-02T18:34:53.709Z,48767.59
2023-04-02T18:37:33.076Z,48746.03
2023-04-02T18:40:26.377Z,48773.47
2023-04-02T18:43:00.556Z,48783.25
2023-04-02T18:46:05.536Z,48777.38
2023-04-02T18:48:56.834Z,48773.47
2023-04-02T18:51:26.383Z,48789.13
2023-04-02T18:54:18.237Z,48781.31
2023-04-02T18:56:44.926Z,48781.31
2023-04-02T18:59:41.722Z,48773.47
2023-04-02T19:02:26.678Z,48800.88
2023-04-02T19:05:01.081Z,48781.31
2023-04-02T19:07:29.353Z,48791.09
2023-04-02T19:10:04.556Z,48777.38
2023-04-02T19:12:33.816Z,48789.13
2023-04-02T19:15:00.395Z,48761.72
2023-04-02T19:17:38.322Z,48759.75
2023-04-02T19:20:11.858Z,48761.72
2023-04-02T19:22:59.666Z,48757.78
2023-04-02T19:25:41.664Z,48755.84
2023-04-02T19:28:13.198Z,48744.06
2023-04-02T19:31:09.097Z,48757.78
2023-04-02T19:33:42.553Z,48753.88
2023-04-02T19:36:29.922Z,48742.13
2023-04-02T19:39:22.844Z,48722.53
2023-04-02T19:41:56.456Z,48736.25
2023-04-02T19:44:22.951Z,48742.13
2023-04-02T19:46:51.544Z,48746.03
2023-04-02T19:49:28.313Z,48757.78
2023-04-02T19:51:55.899Z,48742.13
2023-04-02T19:54:22.956Z,48746.03
2023-04-02T19:56:49.827Z,48753.88
2023-04-02T19:59:18.534Z,48757.78
2023-04-02T20:01:46.518Z,48755.84
2023-04-02T20:04:13.954Z,48742.13
2023-04-02T20:06:40.723Z,48761.72
2023-04-02T20:09:08.666Z,48751.91
2023-04-02T20:11:37.332Z,48765.63
2023-04-02T20:14:04.838Z,48759.75
2023-04-02T20:16:32.682Z,48742.13
2023-04-02T20:18:59.252Z,48742.13
2023-04-02T20:21:26.762Z,48738.19
2023-04-02T20:23:56.286Z,48718.59
2023-04-02T20:26:23.321Z,48728.41
2023-04-02T20:28:49.903Z,48761.72
2023-04-02T20:31:18.841Z,48765.63
2023-04-02T20:33:45.650Z,48734.28
2023-04-02T20:36:14.938Z,48761.72
2023-04-02T20:38:41.838Z,48746.03
2023-04-02T20:41:09.366Z,48730.38
2023-04-02T20:43:37.584Z,48746.03
2023-04-02T20:46:08.325Z,48757.78
2023-04-02T20:48:36.846Z,48738.19
2023-04-02T20:51:05.963Z,48746.03
2023-04-02T20:53:34.691Z,48746.03
2023-04-02T20:56:06.407Z,48738.19
2023-04-02T20:58:34.542Z,48742.13
2023-04-02T21:01:12.587Z,48732.31
2023-04-02T21:03:40.130Z,48761.72
2023-04-02T21:06:12.997Z,48746.03
2023-04-02T21:08:39.890Z,48746.03
2023-04-02T21:11:07.393Z,48742.13
2023-04-02T21:13:36.274Z,48746.03
2023-04-02T21:16:12.786Z,48714.69
2023-04-02T21:18:39.277Z,48730.38
2023-04-02T21:21:07.187Z,48710.78
2023-04-02T21:23:34.268Z,48746.03
2023-04-02T21:26:06.610Z,48736.25
2023-04-02T21:28:34.977Z,48744.06
2023-04-02T21:31:11.052Z,48734.28
2023-04-02T21:33:43.386Z,48726.44
2023-04-02T21:36:16.571Z,48753.88
2023-04-02T21:38:52.690Z,48742.13
2023-04-02T21:41:27.068Z,48730.38
2023-04-02T21:43:54.960Z,48704.91
2023-04-02T21:46:24.346Z,48732.31
2023-04-02T21:48:52.565Z,48730.38
2023-04-02T21:51:30.078Z,48726.44
2023-04-02T21:53:58.177Z,48702.94
2023-04-02T21:56:32.957Z,48728.41
2023-04-02T21:59:01.795Z,48702.94
2023-04-02T22:01:31.577Z,48730.38
2023-04-02T22:04:00.551Z,48751.91
2023-04-02T22:06:29.223Z,48710.78
2023-04-02T22:09:01.683Z,48726.44
2023-04-02T22:11:34.834Z,48746.03
2023-04-02T22:14:03.349Z,48726.44
2023-04-02T22:16:31.571Z,48718.59
2023-04-02T22:19:00.988Z,48722.53
2023-04-02T22:21:29.201Z,48702.94
2023-04-02T22:23:56.514Z,48720.56
2023-04-02T22:26:23.624Z,48710.78
2023-04-02T22:28:52.542Z,48726.44
2023-04-02T22:31:25.106Z,48738.19
2023-04-02T22:33:53.103Z,48716.66
2023-04-02T22:36:21.925Z,48751.91
2023-04-02T22:38:49.216Z,48710.78
2023-04-02T22:41:17.276Z,48724.50
2023-04-02T22:43:45.470Z,48746.03
2023-04-02T22:46:14.562Z,48734.28
2023-04-02T22:48:42.183Z,48738.19
2023-04-02T22:51:11.404Z,48734.28
2023-04-02T22:53:38.952Z,48757.78
2023-04-02T22:56:07.865Z,48738.19
2023-04-02T22:58:35.664Z,48724.50
2023-04-02T23:01:23.492Z,48714.69
2023-04-02T23:03:50.113Z,48736.25
2023-04-02T23:06:18.560Z,48726.44
2023-04-02T23:08:45.702Z,48710.78
2023-04-02T23:11:18.886Z,48730.38
2023-04-02T23:13:47.775Z,48742.13
2023-04-02T23:16:14.945Z,48728.41
2023-04-02T23:18:42.960Z,48740.16
2023-04-02T23:21:10.220Z,48714.69
2023-04-02T23:23:36.796Z,48740.16
2023-04-02T23:26:04.684Z,48716.66
2023-04-02T23:28:31.162Z,48726.44
2023-04-02T23:30:57.843Z,48732.31
2023-04-02T23:33:24.428Z,48757.78
2023-04-02T23:35:50.874Z,48734.28
2023-04-02T23:38:17.305Z,48699.03
2023-04-02T23:40:43.876Z,48720.56
2023-04-02T23:43:10.513Z,48706.84
2023-04-02T23:45:36.927Z,48753.88
2023-04-02T23:48:03.559Z,48734.28
2023-04-02T23:50:30.024Z,48734.28
2023-04-02T23:52:56.403Z,48714.69
2023-04-02T23:55:22.776Z,48699.03
2023-04-02T23:57:49.181Z,48742.13
